createdAt,value
2022-10-06T00:01:08.954Z,11.38
2022-10-06T00:03:38.271Z,9.07
2022-10-06T00:06:06.785Z,11.38
2022-10-06T00:08:36.740Z,11.73
2022-10-06T00:11:04.088Z,12.00
2022-10-06T00:13:32.293Z,8.38
2022-10-06T00:16:00.188Z,9.20
2022-10-06T00:18:28.814Z,7.65
2022-10-06T00:20:58.279Z,7.45
2022-10-06T00:23:26.151Z,18.80
2022-10-06T00:25:52.957Z,9.30
2022-10-06T00:28:20.003Z,11.30
2022-10-06T00:30:47.531Z,9.23
2022-10-06T00:33:19.130Z,14.90
2022-10-06T00:35:46.758Z,11.75
2022-10-06T00:38:16.329Z,8.52
2022-10-06T00:40:46.221Z,7.20
2022-10-06T00:43:47.276Z,7.63
2022-10-06T00:46:22.178Z,12.55
2022-10-06T00:48:58.149Z,9.70
2022-10-06T00:51:25.942Z,10.85
2022-10-06T00:53:53.286Z,7.85
2022-10-06T00:56:20.120Z,6.70
2022-10-06T00:58:48.806Z,7.88
2022-10-06T01:01:15.844Z,9.05
2022-10-06T01:03:53.421Z,8.13
2022-10-06T01:06:20.243Z,7.53
2022-10-06T01:08:47.121Z,5.72
2022-10-06T01:11:14.246Z,8.45
2022-10-06T01:13:44.400Z,11.70
2022-10-06T01:16:25.051Z,12.00
2022-10-06T01:18:54.888Z,7.38
2022-10-06T01:21:37.428Z,14.30
2022-10-06T01:24:05.066Z,7.80
2022-10-06T01:26:35.755Z,8.35
2022-10-06T01:29:02.676Z,8.75
2022-10-06T01:31:29.803Z,9.27
2022-10-06T01:33:57.340Z,7.90
2022-10-06T01:36:24.107Z,7.43
2022-10-06T01:38:53.209Z,9.55
2022-10-06T01:41:19.972Z,8.63
2022-10-06T01:43:46.745Z,7.25
2022-10-06T01:46:13.741Z,11.95
2022-10-06T01:48:40.537Z,9.45
2022-10-06T01:51:09.207Z,8.73
2022-10-06T01:53:36.097Z,8.20
2022-10-06T01:56:02.909Z,10.50
2022-10-06T01:58:30.091Z,11.32
2022-10-06T02:00:57.092Z,8.20
2022-10-06T02:03:23.912Z,10.30
2022-10-06T02:05:50.678Z,14.45
2022-10-06T02:08:20.730Z,12.05
2022-10-06T02:10:47.479Z,8.30
2022-10-06T02:13:14.239Z,11.35
2022-10-06T02:15:41.047Z,10.25
2022-10-06T02:18:07.871Z,14.85
2022-10-06T02:20:34.746Z,10.85
2022-10-06T02:23:01.557Z,9.27
2022-10-06T02:25:28.345Z,9.68
2022-10-06T02:27:55.412Z,7.50
2022-10-06T02:30:22.212Z,9.05
2022-10-06T02:32:49.012Z,9.60
2022-10-06T02:35:15.829Z,13.45
2022-10-06T02:37:42.623Z,8.13
2022-10-06T02:40:10.441Z,9.55
2022-10-06T02:42:38.302Z,11.25
2022-10-06T02:45:09.662Z,13.98
2022-10-06T02:47:37.902Z,8.95
2022-10-06T02:50:07.570Z,13.52
2022-10-06T02:52:36.816Z,7.03
2022-10-06T02:55:06.020Z,7.80
2022-10-06T02:57:32.863Z,12.00
2022-10-06T02:59:59.698Z,7.55
2022-10-06T03:02:26.624Z,10.18
2022-10-06T03:04:53.462Z,12.52
2022-10-06T03:07:20.243Z,10.60
2022-10-06T03:09:46.997Z,14.25
2022-10-06T03:12:13.790Z,9.43
2022-10-06T03:14:40.583Z,10.27
2022-10-06T03:17:09.864Z,13.30
2022-10-06T03:19:39.998Z,10.27
2022-10-06T03:22:06.886Z,8.70
2022-10-06T03:24:33.736Z,9.90
2022-10-06T03:27:00.514Z,7.28
2022-10-06T03:29:30.938Z,6.97
2022-10-06T03:31:58.680Z,9.15
2022-10-06T03:34:25.505Z,13.95
2022-10-06T03:36:52.266Z,8.32
2022-10-06T03:39:19.176Z,8.80
2022-10-06T03:41:46.069Z,12.45
2022-10-06T03:44:12.843Z,8.60
2022-10-06T03:46:39.676Z,12.68
2022-10-06T03:49:06.812Z,12.70
2022-10-06T03:51:40.320Z,9.85
2022-10-06T03:54:10.518Z,7.30
2022-10-06T03:56:40.840Z,9.43
2022-10-06T03:59:10.949Z,12.60
2022-10-06T04:01:44.623Z,7.97
2022-10-06T04:04:12.956Z,9.85
2022-10-06T04:06:42.841Z,11.13
2022-10-06T04:09:15.736Z,11.13
2022-10-06T04:11:44.747Z,8.63
2022-10-06T04:14:15.268Z,9.65
2022-10-06T04:16:49.320Z,12.30
2022-10-06T04:19:17.874Z,11.98
2022-10-06T04:21:47.050Z,14.05
2022-10-06T04:24:14.068Z,12.90
2022-10-06T04:26:48.674Z,7.95
2022-10-06T04:29:16.159Z,7.57
2022-10-06T04:31:43.324Z,8.77
2022-10-06T04:34:13.208Z,10.75
2022-10-06T04:36:42.541Z,12.88
2022-10-06T04:39:11.673Z,9.65
2022-10-06T04:41:41.477Z,9.18
2022-10-06T04:44:09.070Z,9.95
2022-10-06T04:46:44.706Z,10.00
2022-10-06T04:49:18.956Z,8.02
2022-10-06T04:51:48.640Z,10.88
2022-10-06T04:54:15.748Z,12.68
2022-10-06T04:56:42.584Z,12.50
2022-10-06T04:59:09.410Z,8.65
2022-10-06T05:01:37.897Z,14.27
2022-10-06T05:04:06.312Z,12.10
2022-10-06T05:06:37.060Z,14.30
2022-10-06T05:09:11.534Z,7.70
2022-10-06T05:11:38.438Z,8.80
2022-10-06T05:14:05.383Z,16.38
2022-10-06T05:16:32.822Z,9.73
2022-10-06T05:18:59.955Z,10.00
2022-10-06T05:21:32.244Z,8.73
2022-10-06T05:24:00.162Z,14.13
2022-10-06T05:26:31.035Z,8.70
2022-10-06T05:28:58.315Z,10.77
2022-10-06T05:31:28.705Z,12.23
2022-10-06T05:33:57.194Z,10.93
2022-10-06T05:36:30.246Z,11.38
2022-10-06T05:41:26.665Z,9.80
2022-10-06T05:43:53.494Z,12.63
2022-10-06T05:46:25.080Z,10.95
2022-10-06T05:49:03.499Z,7.68
2022-10-06T05:51:33.396Z,13.40
2022-10-06T05:54:00.632Z,13.57
2022-10-06T05:56:36.551Z,9.48
2022-10-06T05:59:04.462Z,14.88
2022-10-06T06:01:35.126Z,9.48
2022-10-06T06:04:04.863Z,9.35
2022-10-06T06:06:45.927Z,12.32
2022-10-06T06:09:16.547Z,12.45
2022-10-06T06:11:53.580Z,14.43
2022-10-06T06:14:40.556Z,12.27
2022-10-06T06:17:08.101Z,17.17
2022-10-06T06:19:34.864Z,11.90
2022-10-06T06:22:01.612Z,10.95
2022-10-06T06:24:28.387Z,12.98
2022-10-06T06:26:55.893Z,11.05
2022-10-06T06:29:23.165Z,9.20
2022-10-06T06:31:51.062Z,13.50
2022-10-06T06:34:18.032Z,9.63
2022-10-06T06:36:47.396Z,11.68
2022-10-06T06:39:15.975Z,14.45
2022-10-06T06:41:46.005Z,13.35
2022-10-06T06:44:13.895Z,11.13
2022-10-06T06:46:49.515Z,15.38
2022-10-06T06:49:17.191Z,18.25
2022-10-06T06:51:49.692Z,11.70
2022-10-06T06:54:18.137Z,7.05
2022-10-06T06:56:45.782Z,10.20
2022-10-06T06:59:13.556Z,11.73
2022-10-06T07:01:47.107Z,11.30
2022-10-06T07:04:16.508Z,14.07
2022-10-06T07:06:52.418Z,10.93
2022-10-06T07:09:20.802Z,10.07
2022-10-06T07:11:47.547Z,12.52
2022-10-06T07:14:14.301Z,11.13
2022-10-06T07:16:59.987Z,8.88
2022-10-06T07:19:45.297Z,6.90
2022-10-06T07:22:30.327Z,8.93
2022-10-06T07:25:07.307Z,8.75
2022-10-06T07:27:36.599Z,7.93
2022-10-06T07:30:05.225Z,8.98
2022-10-06T07:32:32.045Z,11.32
2022-10-06T07:34:59.332Z,8.40
2022-10-06T07:37:27.531Z,8.05
2022-10-06T07:39:54.638Z,9.75
2022-10-06T07:42:21.472Z,7.60
2022-10-06T07:45:07.423Z,10.30
2022-10-06T07:47:35.060Z,7.18
2022-10-06T07:50:01.831Z,8.32
2022-10-06T07:52:28.856Z,11.30
2022-10-06T07:54:58.356Z,9.32
2022-10-06T07:57:34.716Z,6.95
2022-10-06T08:00:05.460Z,7.18
2022-10-06T08:02:35.549Z,10.15
2022-10-06T08:05:04.212Z,5.50
2022-10-06T08:07:31.213Z,8.20
2022-10-06T08:09:58.010Z,7.90
2022-10-06T08:12:33.810Z,9.00
2022-10-06T08:15:06.102Z,7.18
2022-10-06T08:17:36.277Z,8.52
2022-10-06T08:20:09.307Z,6.47
2022-10-06T08:25:10.534Z,12.60
2022-10-06T08:27:38.323Z,9.33
2022-10-06T08:30:07.427Z,11.38
2022-10-06T08:32:34.719Z,9.05
2022-10-06T08:35:01.808Z,6.63
2022-10-06T08:37:28.601Z,11.20
2022-10-06T08:39:56.399Z,9.90
2022-10-06T08:42:43.525Z,6.88
2022-10-06T08:45:28.304Z,10.02
2022-10-06T08:48:26.816Z,12.43
2022-10-06T08:51:08.403Z,6.72
2022-10-06T08:53:50.564Z,7.57
2022-10-06T08:56:23.197Z,7.90
2022-10-06T08:59:04.706Z,7.40
2022-10-06T09:01:47.810Z,13.85
2022-10-06T09:04:26.756Z,8.23
2022-10-06T09:07:11.329Z,9.38
2022-10-06T09:10:11.597Z,11.55
2022-10-06T09:12:57.809Z,9.38
2022-10-06T09:15:36.764Z,9.88
2022-10-06T09:18:56.025Z,5.13
2022-10-06T09:21:30.228Z,6.50
2022-10-06T09:24:06.431Z,5.20
2022-10-06T09:26:34.269Z,6.97
2022-10-06T09:29:01.113Z,5.38
2022-10-06T09:31:40.239Z,6.60
2022-10-06T09:34:38.314Z,9.20
2022-10-06T09:37:09.388Z,9.07
2022-10-06T09:39:39.329Z,11.57
2022-10-06T09:42:19.779Z,9.73
2022-10-06T09:44:59.196Z,10.23
2022-10-06T09:47:28.970Z,8.48
2022-10-06T09:50:17.483Z,10.18
2022-10-06T09:53:00.640Z,7.88
2022-10-06T09:55:43.226Z,4.97
2022-10-06T09:58:29.549Z,8.30
2022-10-06T10:01:09.001Z,6.30
2022-10-06T10:04:15.684Z,9.20
2022-10-06T10:06:40.408Z,7.87
2022-10-06T10:09:27.886Z,7.88
2022-10-06T10:12:25.176Z,9.60
2022-10-06T10:15:22.348Z,6.30
2022-10-06T10:17:56.710Z,5.45
2022-10-06T10:20:36.234Z,12.43
2022-10-06T10:23:09.158Z,9.55
2022-10-06T10:28:15.621Z,6.15
2022-10-06T10:31:16.252Z,6.35
2022-10-06T10:34:32.753Z,7.65
2022-10-06T10:37:23.631Z,5.38
2022-10-06T10:40:09.965Z,9.15
2022-10-06T10:42:50.512Z,5.88
2022-10-06T10:45:36.186Z,9.85
2022-10-06T10:48:19.440Z,4.80
2022-10-06T10:54:03.508Z,6.07
2022-10-06T10:56:33.196Z,5.90
2022-10-06T10:59:30.750Z,3.22
2022-10-06T11:02:21.673Z,3.75
2022-10-06T11:04:54.765Z,5.43
2022-10-06T11:08:12.264Z,6.85
2022-10-06T11:10:50.264Z,7.70
2022-10-06T11:13:22.835Z,5.10
2022-10-06T11:16:31.354Z,3.45
2022-10-06T11:19:27.493Z,5.85
2022-10-06T11:22:11.850Z,4.40
2022-10-06T11:25:15.545Z,4.40
2022-10-06T11:30:20.718Z,3.58
2022-10-06T11:33:58.845Z,9.35
2022-10-06T11:36:40.380Z,5.88
2022-10-06T11:39:37.708Z,2.67
2022-10-06T11:42:36.916Z,3.78
2022-10-06T11:45:13.820Z,6.78
2022-10-06T11:47:59.135Z,4.72
2022-10-06T11:50:38.280Z,5.07
2022-10-06T11:53:32.716Z,7.18
2022-10-06T11:56:17.815Z,6.80
2022-10-06T11:58:56.889Z,3.78
2022-10-06T12:01:39.103Z,8.25
2022-10-06T12:04:10.399Z,8.60
2022-10-06T12:06:46.649Z,6.75
2022-10-06T12:09:46.037Z,6.90
2022-10-06T12:12:17.837Z,4.30
2022-10-06T12:18:23.324Z,9.90
2022-10-06T12:21:32.062Z,6.63
2022-10-06T12:24:52.914Z,5.22
2022-10-06T12:28:15.107Z,7.57
2022-10-06T12:31:06.103Z,7.10
2022-10-06T12:33:41.199Z,7.68
2022-10-06T12:36:24.126Z,4.40
2022-10-06T12:39:26.015Z,5.95
2022-10-06T12:42:02.096Z,5.57
2022-10-06T12:44:49.145Z,5.30
2022-10-06T12:47:38.301Z,5.78
2022-10-06T12:50:26.149Z,5.90
2022-10-06T12:53:05.764Z,3.35
2022-10-06T12:55:51.602Z,5.00
2022-10-06T12:58:28.509Z,3.03
2022-10-06T13:01:01.392Z,6.35
2022-10-06T13:06:02.485Z,5.95
2022-10-06T13:08:32.817Z,6.28
2022-10-06T13:11:22.795Z,3.15
2022-10-06T13:13:55.846Z,4.95
2022-10-06T13:16:33.480Z,4.43
2022-10-06T13:19:01.211Z,4.22
2022-10-06T13:21:30.439Z,6.05
2022-10-06T13:23:57.463Z,3.17
2022-10-06T13:26:32.829Z,2.40
2022-10-06T13:29:01.081Z,3.42
2022-10-06T13:31:35.110Z,4.45
2022-10-06T13:34:13.067Z,3.05
2022-10-06T13:36:46.745Z,3.67
2022-10-06T13:39:19.415Z,2.83
2022-10-06T13:41:56.683Z,2.10
2022-10-06T13:44:35.620Z,2.35
2022-10-06T13:47:18.694Z,5.10
2022-10-06T13:50:18.782Z,4.45
2022-10-06T13:52:48.604Z,5.68
2022-10-06T13:55:24.746Z,3.42
2022-10-06T13:58:09.336Z,4.63
2022-10-06T14:01:05.446Z,2.35
2022-10-06T14:06:15.825Z,3.13
2022-10-06T14:08:50.902Z,2.53
2022-10-06T14:11:28.044Z,3.25
2022-10-06T14:14:04.710Z,5.30
2022-10-06T14:16:31.870Z,2.65
2022-10-06T14:19:02.240Z,4.68
2022-10-06T14:21:41.906Z,1.80
2022-10-06T14:24:20.578Z,5.68
2022-10-06T14:26:54.758Z,2.70
2022-10-06T14:29:23.538Z,1.70
2022-10-06T14:31:51.701Z,6.85
2022-10-06T14:34:21.153Z,4.82
2022-10-06T14:36:55.144Z,5.68
2022-10-06T14:39:22.235Z,7.10
2022-10-06T14:41:49.284Z,3.25
2022-10-06T14:44:16.243Z,4.57
2022-10-06T14:46:49.112Z,2.72
2022-10-06T14:49:16.817Z,2.75
2022-10-06T14:51:45.551Z,3.20
2022-10-06T14:54:12.915Z,2.83
2022-10-06T14:56:40.922Z,1.60
2022-10-06T14:59:12.036Z,4.00
2022-10-06T15:01:40.390Z,4.80
2022-10-06T15:04:18.623Z,1.45
2022-10-06T15:07:05.739Z,1.67
2022-10-06T15:09:32.948Z,4.32
2022-10-06T15:12:00.192Z,5.15
2022-10-06T15:14:29.433Z,4.38
2022-10-06T15:16:59.970Z,3.22
2022-10-06T15:19:27.467Z,3.10
2022-10-06T15:21:54.502Z,2.63
2022-10-06T15:24:21.426Z,4.00
2022-10-06T15:27:07.030Z,2.78
2022-10-06T15:29:37.228Z,2.75
2022-10-06T15:32:06.340Z,2.35
2022-10-06T15:34:34.694Z,3.00
2022-10-06T15:37:02.556Z,4.90
2022-10-06T15:39:32.074Z,6.68
2022-10-06T15:41:59.119Z,6.57
2022-10-06T15:44:26.196Z,2.42
2022-10-06T15:46:55.733Z,4.78
2022-10-06T15:49:29.476Z,2.28
2022-10-06T15:51:59.630Z,3.42
2022-10-06T15:54:39.525Z,3.97
2022-10-06T15:57:10.479Z,5.03
2022-10-06T15:59:40.286Z,6.13
2022-10-06T16:02:14.681Z,4.03
2022-10-06T16:04:42.638Z,4.90
2022-10-06T16:07:12.111Z,5.45
2022-10-06T16:09:43.560Z,13.38
2022-10-06T16:12:13.916Z,13.82
2022-10-06T16:14:41.032Z,14.98
2022-10-06T16:17:09.481Z,15.68
2022-10-06T16:19:37.252Z,17.65
2022-10-06T16:22:06.776Z,15.60
2022-10-06T16:24:34.774Z,13.27
2022-10-06T16:27:01.565Z,12.95
2022-10-06T16:29:28.538Z,13.55
2022-10-06T16:31:55.668Z,10.20
2022-10-06T16:34:23.307Z,10.38
2022-10-06T16:36:50.070Z,13.18
2022-10-06T16:39:22.720Z,10.68
2022-10-06T16:41:50.675Z,11.85
2022-10-06T16:44:17.925Z,10.40
2022-10-06T16:46:45.232Z,12.18
2022-10-06T16:49:12.566Z,11.00
2022-10-06T16:51:42.302Z,17.48
2022-10-06T16:54:12.128Z,7.55
2022-10-06T16:56:41.234Z,3.60
2022-10-06T16:59:20.135Z,10.52
2022-10-06T17:01:48.270Z,6.57
2022-10-06T17:04:19.151Z,4.40
2022-10-06T17:06:49.962Z,7.55
2022-10-06T17:09:20.214Z,5.78
2022-10-06T17:11:55.772Z,4.72
2022-10-06T17:14:23.057Z,6.38
2022-10-06T17:16:52.909Z,5.20
2022-10-06T17:19:22.664Z,10.75
2022-10-06T17:21:55.743Z,6.22
2022-10-06T17:24:27.867Z,6.43
2022-10-06T17:26:56.016Z,5.78
2022-10-06T17:29:23.674Z,6.18
2022-10-06T17:32:00.137Z,9.57
2022-10-06T17:34:32.513Z,11.63
2022-10-06T17:37:01.568Z,8.38
2022-10-06T17:39:28.538Z,7.13
2022-10-06T17:41:55.376Z,5.72
2022-10-06T17:44:26.706Z,12.13
2022-10-06T17:47:03.110Z,11.43
2022-10-06T17:49:34.371Z,10.45
2022-10-06T17:52:01.542Z,16.05
2022-10-06T17:56:57.864Z,12.52
2022-10-06T17:59:31.611Z,10.02
2022-10-06T18:02:02.431Z,11.98
2022-10-06T18:04:29.872Z,8.27
2022-10-06T18:06:57.333Z,18.48
2022-10-06T18:09:24.416Z,9.15
2022-10-06T18:11:59.882Z,9.23
2022-10-06T18:14:32.204Z,6.20
2022-10-06T18:17:01.800Z,13.73
2022-10-06T18:19:31.707Z,7.97
2022-10-06T18:22:12.833Z,9.38
2022-10-06T18:24:40.070Z,63.53
2022-10-06T18:27:08.229Z,19.55
2022-10-06T18:29:38.338Z,17.58
2022-10-06T18:36:12.156Z,6.93
2022-10-06T18:37:41.245Z,10.98
2022-10-06T18:40:09.666Z,10.55
2022-10-06T18:42:37.429Z,6.55
2022-10-06T18:45:23.918Z,11.60
2022-10-06T18:48:09.385Z,12.90
2022-10-06T18:50:36.233Z,11.05
2022-10-06T18:53:04.200Z,20.23
2022-10-06T18:55:31.845Z,14.52
2022-10-06T18:57:59.473Z,13.30
2022-10-06T19:00:26.371Z,10.95
2022-10-06T19:02:55.278Z,6.50
2022-10-06T19:05:22.672Z,9.55
2022-10-06T19:07:49.386Z,9.50
2022-10-06T19:10:16.557Z,6.93
2022-10-06T19:12:43.426Z,8.40
2022-10-06T19:15:11.209Z,14.32
2022-10-06T19:17:40.937Z,10.30
2022-10-06T19:20:10.946Z,8.90
2022-10-06T19:22:38.488Z,12.15
2022-10-06T19:25:05.650Z,17.33
2022-10-06T19:27:33.701Z,13.63
2022-10-06T19:30:00.733Z,77.00
2022-10-06T19:32:32.648Z,64.85
2022-10-06T19:34:59.723Z,93.63
2022-10-06T19:37:30.710Z,58.25
2022-10-06T19:39:58.394Z,16.15
2022-10-06T19:42:44.136Z,11.27
2022-10-06T19:45:12.285Z,16.83
2022-10-06T19:47:40.042Z,12.50
2022-10-06T19:50:12.210Z,15.10
2022-10-06T19:52:40.944Z,9.13
2022-10-06T19:55:08.130Z,15.75
2022-10-06T19:57:35.119Z,14.98
2022-10-06T20:00:02.093Z,11.35
2022-10-06T20:02:29.347Z,8.80
2022-10-06T20:04:56.857Z,11.20
2022-10-06T20:07:27.702Z,16.33
2022-10-06T20:09:55.504Z,10.88
2022-10-06T20:12:25.395Z,14.63
2022-10-06T20:14:53.498Z,8.75
2022-10-06T20:17:20.898Z,15.32
2022-10-06T20:19:47.930Z,15.43
2022-10-06T20:22:14.837Z,17.20
2022-10-06T20:24:41.693Z,11.07
2022-10-06T20:27:09.072Z,13.13
2022-10-06T20:29:36.453Z,14.00
2022-10-06T20:32:05.273Z,13.38
2022-10-06T20:34:32.707Z,12.85
2022-10-06T20:37:02.391Z,21.42
2022-10-06T20:39:50.644Z,11.05
2022-10-06T20:42:19.062Z,18.48
2022-10-06T20:44:46.150Z,15.43
2022-10-06T20:47:14.134Z,15.63
2022-10-06T20:49:44.481Z,17.70
2022-10-06T20:52:14.734Z,11.93
2022-10-06T20:54:41.749Z,14.02
2022-10-06T20:57:09.468Z,19.80
2022-10-06T20:59:37.074Z,17.73
2022-10-06T21:02:05.759Z,16.15
2022-10-06T21:04:33.727Z,21.77
2022-10-06T21:07:01.559Z,17.65
2022-10-06T21:09:28.815Z,14.60
2022-10-06T21:11:57.321Z,21.92
2022-10-06T21:14:24.633Z,20.67
2022-10-06T21:16:52.185Z,13.88
2022-10-06T21:19:19.719Z,15.20
2022-10-06T21:21:53.083Z,11.18
2022-10-06T21:24:20.709Z,13.32
2022-10-06T21:26:48.711Z,10.05
2022-10-06T21:29:16.478Z,13.38
2022-10-06T21:31:44.835Z,16.85
2022-10-06T21:34:14.355Z,11.32
2022-10-06T21:36:43.390Z,17.77
2022-10-06T21:39:11.601Z,16.83
2022-10-06T21:41:39.910Z,15.65
2022-10-06T21:44:18.193Z,16.33
2022-10-06T21:46:55.954Z,12.18
2022-10-06T21:49:25.012Z,18.73
2022-10-06T21:51:54.905Z,18.38
2022-10-06T21:54:23.744Z,12.48
2022-10-06T21:56:50.997Z,13.00
2022-10-06T21:59:18.257Z,18.30
2022-10-06T22:01:47.678Z,22.52
2022-10-06T22:04:15.210Z,26.58
2022-10-06T22:06:44.312Z,35.67
2022-10-06T22:09:20.354Z,23.33
2022-10-06T22:11:47.716Z,23.23
2022-10-06T22:14:17.577Z,11.63
2022-10-06T22:16:44.948Z,13.57
2022-10-06T22:19:13.842Z,10.05
2022-10-06T22:21:44.690Z,8.48
2022-10-06T22:24:18.571Z,8.23
2022-10-06T22:26:46.128Z,7.30
2022-10-06T22:29:15.887Z,9.93
2022-10-06T22:31:45.521Z,26.10
2022-10-06T22:34:15.677Z,23.77
2022-10-06T22:36:42.684Z,27.38
2022-10-06T22:39:09.395Z,14.63
2022-10-06T22:41:36.653Z,17.83
2022-10-06T22:44:03.513Z,13.15
2022-10-06T22:46:35.549Z,6.10
2022-10-06T22:49:03.648Z,9.00
2022-10-06T22:51:30.506Z,6.72
2022-10-06T22:53:59.525Z,6.70
2022-10-06T22:56:28.770Z,7.13
2022-10-06T22:58:59.296Z,5.97
2022-10-06T23:01:26.454Z,11.75
2022-10-06T23:03:55.501Z,11.23
2022-10-06T23:06:22.297Z,6.60
2022-10-06T23:08:49.031Z,7.68
2022-10-06T23:11:19.570Z,8.65
2022-10-06T23:13:48.257Z,6.07
2022-10-06T23:16:18.096Z,5.75
2022-10-06T23:18:45.561Z,7.85
2022-10-06T23:21:19.259Z,22.42
2022-10-06T23:23:53.432Z,5.75
2022-10-06T23:26:21.787Z,18.23
2022-10-06T23:28:58.679Z,10.30
2022-10-06T23:31:27.460Z,6.78
2022-10-06T23:33:55.172Z,6.35
2022-10-06T23:36:21.978Z,13.63
2022-10-06T23:38:48.986Z,5.35
2022-10-06T23:41:16.208Z,6.93
2022-10-06T23:43:43.529Z,11.57
2022-10-06T23:46:10.853Z,12.43
2022-10-06T23:48:37.930Z,15.82
2022-10-06T23:51:09.109Z,14.55
2022-10-06T23:53:36.676Z,8.18
2022-10-06T23:56:04.265Z,5.85
2022-10-06T23:58:31.463Z,5.82
